Time;durP1;ratioP1;P1;durP2;ratioP2;P2;SDS_P1;SDS_P2;PMS_P1;PMS_P2;Temp;Humidity;BMP_temperature;BMP_pressure;BME280_temperature;BME280_humidity;BME280_pressure;Samples;Min_cycle;Max_cycle;Signal;HPM_P1;HPM_P2
2021/01/01 00:02:09;;;;;;;5.80;2.65;;;;;;;-1.01;72.14;99649.53;4912785;29;20046;-75
2021/01/01 00:05:06;;;;;;;2.08;1.98;;;;;;;-0.99;72.23;99651.00;4909389;29;20033;-74
2021/01/01 00:07:53;;;;;;;;;;;;;;;;;;;;;
2021/01/01 00:10:52;;;;;;;5.72;3.20;;;;;;;-1.24;72.38;99632.88;4928057;29;20063;-74
2021/01/01 00:13:25;;;;;;;2.20;2.10;;;;;;;-1.29;72.38;99631.81;4899501;29;20033;-74
2021/01/01 00:15:53;;;;;;;3.13;2.83;;;;;;;-1.18;72.37;99652.66;4862011;29;20523;-74
2021/01/01 00:18:19;;;;;;;1.20;1.05;;;;;;;-1.18;72.15;99660.72;4878918;29;20043;-75
2021/01/01 00:20:44;;;;;;;2.05;1.83;;;;;;;-1.11;72.52;99680.31;4913064;29;20040;-74
2021/01/01 00:23:10;;;;;;;1.63;1.52;;;;;;;-1.15;72.26;99659.50;4920048;29;20053;-75
2021/01/01 00:25:36;;;;;;;0.65;0.65;;;;;;;-1.23;71.63;99655.13;4889891;29;20039;-74
2021/01/01 00:28:02;;;;;;;1.48;1.38;;;;;;;-1.17;72.35;99673.09;4903998;29;20028;-75
2021/01/01 00:30:28;;;;;;;2.03;1.13;;;;;;;-1.23;72.67;99669.41;4905191;29;20043;-75
2021/01/01 00:32:55;;;;;;;3.45;1.45;;;;;;;-1.15;72.59;99675.59;4886368;29;20032;-75
2021/01/01 00:35:21;;;;;;;1.85;1.75;;;;;;;-1.22;72.37;99670.22;4897100;29;20043;-74
2021/01/01 00:37:52;;;;;;;0.75;0.75;;;;;;;-1.15;72.84;99670.22;4916858;29;20036;-76
2021/01/01 00:40:23;;;;;;;0.65;0.65;;;;;;;-1.20;72.63;99675.38;4898552;29;20474;-78
2021/01/01 00:42:49;;;;;;;0.40;0.25;;;;;;;-1.28;72.77;99666.50;4901473;29;20035;-77
2021/01/01 00:45:34;;;;;;;0.73;0.73;;;;;;;-1.16;72.69;99684.66;4897040;29;20020;-75
2021/01/01 00:48:00;;;;;;;0.63;0.63;;;;;;;-1.36;72.21;99665.88;4913286;29;20095;-77
2021/01/01 00:50:25;;;;;;;0.75;0.75;;;;;;;-1.29;72.41;99680.13;4915641;29;20032;-76
2021/01/01 00:52:53;;;;;;;1.70;1.60;;;;;;;-1.32;72.42;99684.03;4901839;29;20474;-76
2021/01/01 00:55:19;;;;;;;4.30;2.15;;;;;;;-1.50;72.16;99662.38;4881973;29;20036;-77
2021/01/01 00:57:48;;;;;;;1.55;1.45;;;;;;;-1.49;72.07;99675.59;4895640;29;20047;-78
2021/01/01 01:00:17;;;;;;;1.23;1.13;;;;;;;-1.63;72.17;99674.72;4898555;29;20032;-76
2021/01/01 01:02:42;;;;;;;1.90;1.73;;;;;;;-1.67;72.96;99681.53;4895188;29;20032;-78
2021/01/01 01:05:14;;;;;;;1.10;1.10;;;;;;;-1.74;72.26;99678.00;4896618;29;20039;-77
2021/01/01 01:07:42;;;;;;;2.90;1.65;;;;;;;-1.85;71.86;99684.00;4915244;29;20176;-76
2021/01/01 01:10:26;;;;;;;;;;;;;;;;;;;;;
2021/01/01 01:13:06;;;;;;;1.42;1.35;;;;;;;-2.09;72.26;99664.72;4913205;29;20036;-76
2021/01/01 01:15:47;;;;;;;;;;;;;;;;;;;;;
2021/01/01 01:18:13;;;;;;;2.70;2.50;;;;;;;-2.03;71.71;99689.91;4908767;29;20028;-75
2021/01/01 01:20:38;;;;;;;4.53;1.35;;;;;;;-2.00;71.96;99698.38;4892034;29;20114;-74
2021/01/01 01:23:03;;;;;;;3.40;2.67;;;;;;;-2.05;72.27;99691.97;4910471;29;20028;-74
2021/01/01 01:25:31;;;;;;;13.13;2.70;;;;;;;-2.04;72.30;99697.13;4878785;29;20679;-74
2021/01/01 01:27:56;;;;;;;1.83;1.50;;;;;;;-2.01;72.19;99702.06;4898724;29;20078;-75
2021/01/01 01:30:22;;;;;;;2.85;1.83;;;;;;;-2.00;72.73;99706.41;4910503;29;20024;-75
2021/01/01 01:32:48;;;;;;;0.85;0.73;;;;;;;-1.95;72.71;99706.63;4895144;29;20036;-75
2021/01/01 01:35:13;;;;;;;2.47;2.33;;;;;;;-1.97;72.56;99703.31;4904810;29;20036;-77
2021/01/01 01:37:39;;;;;;;4.60;4.05;;;;;;;-1.92;72.81;99715.31;4913195;29;20044;-78
2021/01/01 01:40:06;;;;;;;2.75;2.05;;;;;;;-1.92;72.42;99709.94;4908488;29;20023;-77
2021/01/01 01:42:32;;;;;;;6.60;2.83;;;;;;;-1.92;72.53;99712.63;4900823;29;20392;-75
2021/01/01 01:44:58;;;;;;;3.88;3.58;;;;;;;-1.88;73.15;99719.22;4876763;29;20494;-77
2021/01/01 01:47:24;;;;;;;5.65;4.75;;;;;;;-1.92;73.00;99720.66;4892487;29;20032;-76
2021/01/01 01:49:50;;;;;;;3.45;3.25;;;;;;;-1.91;73.03;99716.94;4896602;29;20103;-75
2021/01/01 01:52:16;;;;;;;4.10;3.15;;;;;;;-1.89;73.55;99720.25;4906624;29;20467;-75
2021/01/01 01:54:43;;;;;;;2.60;1.92;;;;;;;-1.81;73.35;99720.06;4893762;29;20162;-78
2021/01/01 01:57:09;;;;;;;1.63;1.52;;;;;;;-1.70;73.55;99730.19;4904213;29;20123;-77
2021/01/01 01:59:36;;;;;;;2.58;2.38;;;;;;;-1.61;73.54;99717.44;4907861;29;20036;-78
2021/01/01 02:02:01;;;;;;;1.48;1.38;;;;;;;-1.55;73.13;99721.97;4884523;29;20128;-77
2021/01/01 02:04:26;;;;;;;2.35;1.95;;;;;;;-1.50;73.03;99721.38;4891483;29;20032;-77
2021/01/01 02:06:52;;;;;;;1.08;1.02;;;;;;;-1.46;73.32;99738.69;4906151;29;20068;-78
2021/01/01 02:09:18;;;;;;;1.63;1.52;;;;;;;-1.50;72.81;99732.09;4887424;29;20059;-78
2021/01/01 02:11:48;;;;;;;2.58;2.33;;;;;;;-1.51;73.06;99743.84;4894487;29;20039;-79
2021/01/01 02:14:14;;;;;;;2.03;1.92;;;;;;;-1.54;73.05;99746.94;4900235;29;20534;-78
2021/01/01 02:16:40;;;;;;;0.73;0.73;;;;;;;-1.58;73.00;99744.69;4894458;29;20059;-78
2021/01/01 02:19:05;;;;;;;1.35;1.20;;;;;;;-1.70;73.34;99738.25;4883372;29;20075;-78
2021/01/01 02:21:31;;;;;;;1.70;1.60;;;;;;;-1.76;72.43;99745.22;4889045;29;20069;-77
2021/01/01 02:23:56;;;;;;;1.45;1.35;;;;;;;-1.82;73.18;99747.91;4873705;29;20032;-77
2021/01/01 02:26:22;;;;;;;2.90;2.50;;;;;;;-1.87;73.12;99751.19;4888709;29;20379;-76
2021/01/01 02:28:47;;;;;;;2.17;1.92;;;;;;;-1.92;72.75;99744.78;4895893;29;20036;-79
2021/01/01 02:31:12;;;;;;;1.77;1.52;;;;;;;-1.97;73.08;99743.53;4898944;29;20083;-78
2021/01/01 02:33:38;;;;;;;1.17;1.10;;;;;;;-1.97;73.29;99759.59;4906641;29;20096;-77
2021/01/01 02:36:04;;;;;;;1.00;0.90;;;;;;;-1.97;73.15;99748.88;4896003;29;20056;-79
2021/01/01 02:38:29;;;;;;;0.85;0.80;;;;;;;-1.96;72.92;99745.19;4909408;29;20036;-78
2021/01/01 02:40:56;;;;;;;3.78;1.65;;;;;;;-1.88;73.59;99762.94;4919306;29;20032;-80
2021/01/01 02:43:21;;;;;;;2.28;1.65;;;;;;;-1.89;73.53;99765.81;4892080;29;20040;-76
2021/01/01 02:45:47;;;;;;;1.38;1.27;;;;;;;-1.91;73.70;99751.78;4904976;29;20391;-77
2021/01/01 02:48:20;;;;;;;1.08;1.08;;;;;;;-1.90;73.94;99767.66;4894780;29;20033;-75
2021/01/01 02:50:46;;;;;;;1.65;1.55;;;;;;;-1.96;73.66;99766.63;4890337;29;20033;-78
2021/01/01 02:53:12;;;;;;;1.88;1.77;;;;;;;-2.02;73.74;99764.72;4909000;29;20176;-79
2021/01/01 02:55:38;;;;;;;1.42;1.40;;;;;;;-2.14;73.26;99752.94;4893183;29;20645;-77
2021/01/01 02:58:04;;;;;;;1.10;1.02;;;;;;;-2.17;72.94;99764.88;4894312;29;20475;-77
2021/01/01 03:00:31;;;;;;;0.95;0.90;;;;;;;-2.23;73.55;99776.38;4888200;29;20129;-75
2021/01/01 03:02:57;;;;;;;3.97;0.80;;;;;;;-2.29;73.37;99778.00;4894825;29;20037;-78
2021/01/01 03:05:23;;;;;;;1.60;1.42;;;;;;;-2.36;73.24;99770.97;4902230;29;20033;-76
2021/01/01 03:07:48;;;;;;;0.52;0.50;;;;;;;-2.42;73.56;99771.72;4893763;29;20139;-77
2021/01/01 03:10:14;;;;;;;2.20;1.33;;;;;;;-2.48;73.23;99766.16;4894606;29;20037;-77
2021/01/01 03:12:40;;;;;;;0.80;0.80;;;;;;;-2.51;73.58;99773.72;4874975;29;20048;-77
2021/01/01 03:15:06;;;;;;;1.38;1.20;;;;;;;-2.57;73.86;99770.03;4909978;29;20025;-76
2021/01/01 03:17:31;;;;;;;1.55;1.23;;;;;;;-2.63;73.24;99771.63;4891466;29;20071;-78
2021/01/01 03:19:57;;;;;;;2.50;2.30;;;;;;;-2.63;74.10;99773.44;4890991;29;20052;-78
2021/01/01 03:22:22;;;;;;;0.82;0.82;;;;;;;-2.64;73.38;99769.16;4885888;29;20037;-78
2021/01/01 03:24:48;;;;;;;2.17;1.02;;;;;;;-2.64;73.88;99771.81;4889769;29;20119;-79
2021/01/01 03:27:14;;;;;;;0.90;0.90;;;;;;;-2.69;74.01;99768.88;4881824;29;20156;-79
2021/01/01 03:29:39;;;;;;;0.88;0.88;;;;;;;-2.69;74.22;99783.09;4894458;29;20046;-79
2021/01/01 03:32:05;;;;;;;0.52;0.52;;;;;;;-2.76;73.61;99771.53;4889481;29;20398;-77
2021/01/01 03:34:30;;;;;;;0.77;0.77;;;;;;;-2.73;73.92;99779.16;4881249;29;20033;-76
2021/01/01 03:36:55;;;;;;;0.50;0.50;;;;;;;-2.74;73.48;99780.19;4890107;29;20088;-77
2021/01/01 03:39:21;;;;;;;0.90;0.90;;;;;;;-2.78;73.97;99773.56;4866370;29;20040;-78
2021/01/01 03:41:49;;;;;;;0.60;0.60;;;;;;;-2.75;73.61;99778.53;4890073;29;20069;-77
2021/01/01 03:44:15;;;;;;;2.15;0.90;;;;;;;-2.83;73.36;99776.00;4892821;29;20040;-77
2021/01/01 03:46:41;;;;;;;2.25;1.52;;;;;;;-2.88;73.56;99770.41;4912999;29;20045;-78
2021/01/01 03:49:06;;;;;;;1.20;1.08;;;;;;;-2.86;73.57;99779.03;4908003;29;20040;-79
2021/01/01 03:51:31;;;;;;;1.23;1.13;;;;;;;-2.90;73.96;99764.44;4891134;29;20040;-78
2021/01/01 03:53:57;;;;;;;3.20;2.47;;;;;;;-2.94;73.99;99763.16;4894627;29;20036;-77
2021/01/01 03:56:22;;;;;;;6.10;5.40;;;;;;;-2.97;73.80;99761.69;4899069;29;20043;-78
2021/01/01 03:58:47;;;;;;;6.65;5.05;;;;;;;-2.99;74.32;99772.59;4892735;29;20052;-78
2021/01/01 04:01:16;;;;;;;3.55;3.33;;;;;;;-2.99;73.65;99777.94;4897979;29;20028;-80
2021/01/01 04:03:44;;;;;;;2.78;2.67;;;;;;;-3.04;73.96;99761.66;4878172;29;20041;-77
2021/01/01 04:06:09;;;;;;;9.55;3.95;;;;;;;-3.04;74.14;99772.34;4863127;29;20139;-78
2021/01/01 04:08:35;;;;;;;1.60;1.50;;;;;;;-2.97;74.66;99774.25;4875947;29;20037;-78
2021/01/01 04:11:02;;;;;;;3.05;2.85;;;;;;;-2.96;74.49;99770.53;4866717;29;20033;-78
2021/01/01 04:13:27;;;;;;;1.58;1.48;;;;;;;-3.04;73.71;99758.97;4881097;29;20029;-80
2021/01/01 04:15:52;;;;;;;0.68;0.68;;;;;;;-2.99;73.64;99767.22;4862164;29;20062;-79
2021/01/01 04:18:18;;;;;;;2.75;2.65;;;;;;;-3.02;73.79;99762.28;4869274;29;20033;-77
2021/01/01 04:20:43;;;;;;;1.38;1.27;;;;;;;-2.96;73.93;99775.88;4875339;29;20025;-77
2021/01/01 04:23:11;;;;;;;1.75;1.55;;;;;;;-3.01;74.37;99769.28;4881562;29;20107;-77
2021/01/01 04:25:37;;;;;;;1.38;1.08;;;;;;;-3.02;74.23;99775.66;4874755;29;20123;-77
2021/01/01 04:28:02;;;;;;;0.90;0.68;;;;;;;-3.09;74.30;99772.09;4878256;29;20240;-77
2021/01/01 04:30:28;;;;;;;1.42;1.33;;;;;;;-3.06;74.37;99766.34;4869872;29;20688;-77
2021/01/01 04:32:53;;;;;;;1.70;1.42;;;;;;;-3.13;73.67;99761.97;4883166;29;20033;-77
2021/01/01 04:35:19;;;;;;;0.50;0.50;;;;;;;-3.14;74.21;99769.16;4877125;29;20037;-77
2021/01/01 04:37:44;;;;;;;1.67;0.70;;;;;;;-3.11;73.87;99778.66;4897017;29;20029;-76
2021/01/01 04:40:10;;;;;;;0.80;0.80;;;;;;;-3.16;73.27;99765.84;4838632;29;20041;-76
2021/01/01 04:42:36;;;;;;;1.45;1.38;;;;;;;-3.18;74.00;99775.94;4878977;29;20029;-76
2021/01/01 04:45:04;;;;;;;0.30;0.30;;;;;;;-3.23;74.33;99762.28;4862114;29;20124;-75
2021/01/01 04:47:30;;;;;;;0.63;0.63;;;;;;;-3.18;73.91;99765.22;4873102;29;20120;-75
2021/01/01 04:49:56;;;;;;;0.90;0.90;;;;;;;-3.20;73.94;99770.78;4872439;29;20124;-74
2021/01/01 04:52:24;;;;;;;1.23;1.05;;;;;;;-3.22;73.62;99771.97;4869289;29;20129;-74
2021/01/01 04:54:51;;;;;;;0.98;0.98;;;;;;;-3.24;74.09;99774.00;4872171;29;20040;-75
2021/01/01 04:57:16;;;;;;;0.63;0.63;;;;;;;-3.25;74.23;99777.72;4874760;29;20063;-75
2021/01/01 04:59:42;;;;;;;0.60;0.60;;;;;;;-3.31;74.41;99763.25;4893575;29;20068;-75
2021/01/01 05:02:10;;;;;;;1.02;0.93;;;;;;;-3.26;73.79;99770.69;4872296;29;20036;-75
2021/01/01 05:04:35;;;;;;;0.55;0.55;;;;;;;-3.26;74.45;99773.38;4885966;29;20044;-76
2021/01/01 05:07:01;;;;;;;0.82;0.82;;;;;;;-3.23;74.01;99781.81;4884526;29;20048;-76
2021/01/01 05:09:28;;;;;;;0.60;0.60;;;;;;;-3.21;74.55;99768.28;4888815;29;20038;-75
2021/01/01 05:12:12;;;;;;;1.42;0.70;;;;;;;-3.15;74.47;99772.88;4864728;29;20047;-76
2021/01/01 05:14:39;;;;;;;0.45;0.45;;;;;;;-3.11;75.08;99778.66;4876705;29;20033;-76
2021/01/01 05:17:04;;;;;;;1.90;1.00;;;;;;;-3.08;74.67;99771.06;4908969;29;20460;-76
2021/01/01 05:19:41;;;;;;;0.60;0.60;;;;;;;-2.97;74.70;99774.25;4907831;29;20028;-75
2021/01/01 05:22:20;;;;;;;0.80;0.80;;;;;;;-3.06;74.90;99763.66;4904698;29;20036;-74
2021/01/01 05:24:49;;;;;;;6.07;1.67;;;;;;;-3.10;74.51;99770.41;4895604;29;20037;-76
2021/01/01 05:27:16;;;;;;;2.80;0.80;;;;;;;-3.03;74.79;99779.34;4887784;29;20076;-76
2021/01/01 05:29:57;;;;;;;2.63;2.42;;;;;;;-3.13;74.24;99768.13;4908041;29;20068;-77
2021/01/01 05:32:30;;;;;;;2.70;2.55;;;;;;;-3.13;74.00;99765.47;4886580;29;20028;-75
2021/01/01 05:34:57;;;;;;;9.95;2.63;;;;;;;-3.12;74.39;99783.19;4883677;29;20037;-78
2021/01/01 05:37:29;;;;;;;1.75;1.65;;;;;;;-3.12;74.20;99783.19;4896696;29;20058;-77
2021/01/01 05:40:05;;;;;;;2.03;1.48;;;;;;;-3.17;74.28;99758.84;4901131;29;20115;-77
2021/01/01 05:42:31;;;;;;;1.52;1.42;;;;;;;-3.12;74.66;99777.81;4897174;29;20166;-78
2021/01/01 05:44:57;;;;;;;0.93;0.93;;;;;;;-3.14;74.24;99768.34;4866861;29;20471;-78
2021/01/01 05:47:22;;;;;;;0.73;0.63;;;;;;;-3.09;74.71;99777.44;4880645;29;20040;-77
2021/01/01 05:49:48;;;;;;;1.63;1.52;;;;;;;-3.03;74.70;99775.84;4889096;29;20036;-78
2021/01/01 05:52:25;;;;;;;1.48;1.38;;;;;;;-3.03;74.96;99768.63;4906896;29;20475;-76
2021/01/01 05:55:04;;;;;;;1.23;1.13;;;;;;;-2.95;75.20;99780.22;4901419;29;20375;-78
2021/01/01 05:57:34;;;;;;;1.40;1.25;;;;;;;-2.93;74.97;99780.88;4910926;29;20024;-79
2021/01/01 06:00:03;;;;;;;1.00;1.00;;;;;;;-3.02;75.07;99782.84;4887883;29;20040;-78
2021/01/01 06:02:42;;;;;;;1.52;1.42;;;;;;;-3.07;74.23;99778.06;4915746;29;20029;-78
2021/01/01 06:05:10;;;;;;;3.70;0.93;;;;;;;-3.04;75.11;99792.91;4909961;29;20063;-77
2021/01/01 06:07:37;;;;;;;1.48;1.38;;;;;;;-3.17;74.05;99780.22;4889988;29;20052;-77
2021/01/01 06:10:05;;;;;;;0.57;0.50;;;;;;;-3.13;74.13;99792.22;4903580;29;20035;-78
2021/01/01 06:12:34;;;;;;;1.83;1.73;;;;;;;-3.15;74.57;99799.59;4882722;29;20036;-76
2021/01/01 06:15:00;;;;;;;1.05;1.05;;;;;;;-3.09;74.94;99804.19;4902904;29;20039;-76
2021/01/01 06:17:33;;;;;;;1.48;1.38;;;;;;;-3.16;74.56;99800.63;4888574;29;21793;-76
2021/01/01 06:19:59;;;;;;;2.65;2.45;;;;;;;-3.16;75.47;99787.25;4910865;29;20056;-76
2021/01/01 06:22:32;;;;;;;4.95;4.03;;;;;;;-2.97;75.79;99809.03;4902687;29;20066;-76
2021/01/01 06:25:00;;;;;;;11.07;5.72;;;;;;;-2.85;76.96;99811.00;4907748;29;20035;-76
2021/01/01 06:27:27;;;;;;;8.13;5.20;;;;;;;-2.83;77.29;99802.78;4891465;29;20033;-76
2021/01/01 06:30:00;;;;;;;5.75;4.55;;;;;;;-2.69;77.26;99815.22;4895360;29;20115;-77
2021/01/01 06:32:26;;;;;;;9.55;5.65;;;;;;;-2.67;77.50;99815.03;4893907;29;20032;-78
2021/01/01 06:34:52;;;;;;;8.55;5.18;;;;;;;-2.61;77.74;99816.94;4881985;29;20043;-77
2021/01/01 06:37:47;;;;;;;5.40;5.00;;;;;;;-2.54;77.38;99827.69;4898133;29;20039;-77
2021/01/01 06:40:22;;;;;;;4.05;3.85;;;;;;;-2.50;78.24;99829.78;4901237;29;20043;-78
2021/01/01 06:43:01;;;;;;;3.58;3.28;;;;;;;-2.47;77.74;99833.91;4894298;29;20056;-78
2021/01/01 06:45:42;;;;;;;10.63;5.32;;;;;;;-2.44;78.29;99833.50;4911852;29;20043;-79
2021/01/01 06:48:34;;;;;;;4.30;4.00;;;;;;;-2.39;78.07;99836.44;4888160;29;20039;-77
2021/01/01 06:50:59;;;;;;;6.35;5.35;;;;;;;-2.39;77.90;99836.44;4900857;29;20138;-78
2021/01/01 06:53:29;;;;;;;6.50;4.47;;;;;;;-2.32;78.10;99845.34;4907180;29;20483;-78
2021/01/01 06:56:09;;;;;;;4.38;3.97;;;;;;;-2.32;78.73;99842.69;4904831;29;20147;-78
2021/01/01 06:58:34;;;;;;;4.20;3.85;;;;;;;-2.28;78.24;99837.75;4888655;29;20040;-77
2021/01/01 07:01:00;;;;;;;5.43;4.93;;;;;;;-2.25;78.56;99831.19;4892449;29;20502;-77
2021/01/01 07:03:25;;;;;;;7.30;5.28;;;;;;;-2.16;78.15;99840.69;4907720;29;20499;-78
2021/01/01 07:06:11;;;;;;;5.45;4.90;;;;;;;-2.09;78.37;99846.94;4886229;29;20048;-78
2021/01/01 07:08:39;;;;;;;7.05;4.35;;;;;;;-2.00;78.45;99850.28;4906495;29;20107;-78
2021/01/01 07:11:25;;;;;;;5.65;4.20;;;;;;;-1.94;78.64;99855.69;4900123;29;20087;-78
2021/01/01 07:14:08;;;;;;;;;;;;;;;;;;;;;
2021/01/01 07:16:50;;;;;;;1.50;1.40;;;;;;;-1.78;78.22;99857.22;4905811;29;20033;-78
2021/01/01 07:19:16;;;;;;;1.75;1.65;;;;;;;-1.73;78.21;99850.44;4915222;29;20028;-78
2021/01/01 07:21:41;;;;;;;1.42;1.33;;;;;;;-1.76;77.83;99840.91;4912236;29;20036;-78
2021/01/01 07:24:07;;;;;;;1.10;1.10;;;;;;;-1.67;77.55;99866.53;4905155;29;20492;-77
2021/01/01 07:26:33;;;;;;;2.75;1.40;;;;;;;-1.70;77.44;99866.91;4908262;29;20075;-79
2021/01/01 07:29:00;;;;;;;1.30;1.30;;;;;;;-1.76;77.28;99865.03;4900499;29;20452;-77
2021/01/01 07:31:26;;;;;;;1.17;1.08;;;;;;;-1.76;77.22;99868.53;4915194;29;20032;-76
2021/01/01 07:33:51;;;;;;;1.35;1.30;;;;;;;-1.79;77.09;99857.41;4904443;29;20044;-78
2021/01/01 07:36:17;;;;;;;1.35;1.10;;;;;;;-1.78;77.02;99853.72;4901339;29;20026;-77
2021/01/01 07:38:45;;;;;;;1.52;1.42;;;;;;;-1.77;76.51;99856.19;4916301;29;20032;-77
2021/01/01 07:41:11;;;;;;;0.88;0.88;;;;;;;-1.70;76.91;99863.44;4898026;29;20028;-77
2021/01/01 07:43:38;;;;;;;1.10;1.00;;;;;;;-1.59;76.73;99873.59;4913164;29;20095;-76
2021/01/01 07:46:11;;;;;;;1.48;1.38;;;;;;;-1.61;76.35;99859.53;4905215;29;20130;-76
2021/01/01 07:48:37;;;;;;;1.30;1.08;;;;;;;-1.49;76.38;99878.56;4907377;29;20020;-77
2021/01/01 07:51:07;;;;;;;1.02;1.02;;;;;;;-1.50;76.02;99883.09;4917139;29;20036;-75
2021/01/01 07:53:34;;;;;;;1.35;1.33;;;;;;;-1.51;76.12;99881.44;4926890;29;20036;-76
2021/01/01 07:56:08;;;;;;;1.20;1.20;;;;;;;-1.53;75.63;99882.66;4901977;29;20040;-77
2021/01/01 07:58:36;;;;;;;0.85;0.85;;;;;;;-1.55;75.76;99879.38;4912756;29;20032;-77
2021/01/01 08:01:07;;;;;;;0.80;0.80;;;;;;;-1.51;76.41;99875.25;4917548;29;20147;-76
2021/01/01 08:03:34;;;;;;;1.13;0.85;;;;;;;-1.48;76.55;99869.50;4906059;29;20505;-75
2021/01/01 08:06:18;;;;;;;0.52;0.52;;;;;;;-1.35;76.30;99885.63;4903576;29;20055;-77
2021/01/01 08:08:44;;;;;;;1.20;0.85;;;;;;;-1.23;76.31;99876.00;4922633;29;20151;-77
2021/01/01 08:11:12;;;;;;;1.20;1.15;;;;;;;-1.11;76.03;99886.09;4922022;29;20024;-78
2021/01/01 08:13:37;;;;;;;1.50;0.80;;;;;;;-1.00;75.45;99882.84;4917658;29;20031;-76
2021/01/01 08:16:14;;;;;;;1.60;0.75;;;;;;;-0.91;75.49;99881.59;4928097;29;20025;-77
2021/01/01 08:18:40;;;;;;;2.30;0.90;;;;;;;-0.81;75.55;99885.78;4922993;29;20039;-78
2021/01/01 08:21:13;;;;;;;1.50;1.40;;;;;;;-0.71;75.31;99886.19;4902851;29;20063;-76
2021/01/01 08:24:00;;;;;;;1.30;1.30;;;;;;;-0.56;75.31;99894.88;4891288;29;20043;-78
2021/01/01 08:26:32;;;;;;;3.65;3.45;;;;;;;-0.47;75.44;99891.97;4913827;29;20035;-75
2021/01/01 08:28:59;;;;;;;4.78;4.53;;;;;;;-0.44;75.22;99891.56;4907812;29;24207;-74
2021/01/01 08:31:28;;;;;;;3.92;3.72;;;;;;;-0.40;74.98;99882.88;4893158;29;20068;-76
2021/01/01 08:33:54;;;;;;;7.63;4.47;;;;;;;-0.25;75.59;99906.88;4907812;29;20044;-79
2021/01/01 08:39:17;;;;;;;3.83;1.77;;;;;;;-0.03;75.36;99901.25;4929057;29;20047;-79
2021/01/01 08:41:47;;;;;;;4.50;4.13;;;;;;;0.07;75.40;99900.81;4923658;29;20036;-79
2021/01/01 08:44:24;;;;;;;;;;;;;;;;;;;;;
2021/01/01 08:47:00;;;;;;;4.80;4.50;;;;;;;0.16;74.58;99908.47;4925042;29;20111;-79
2021/01/01 08:49:32;;;;;;;;;;;;;;;0.24;74.70;99914.66;4916198;29;20047;-78
2021/01/01 08:52:09;;;;;;;4.18;3.78;;;;;;;0.19;74.50;99911.75;4918194;29;19982;-77
2021/01/01 08:54:34;;;;;;;4.68;3.33;;;;;;;0.31;74.82;99921.66;4917695;29;20025;-77
2021/01/01 08:57:27;;;;;;;3.63;3.33;;;;;;;0.49;74.59;99926.38;4915879;29;20105;-77
2021/01/01 09:00:11;;;;;;;6.15;4.22;;;;;;;0.51;74.57;99910.84;4883349;29;20028;-78
2021/01/01 09:02:36;;;;;;;5.35;4.90;;;;;;;0.52;75.21;99907.09;4898308;29;20598;-77
2021/01/01 09:05:04;;;;;;;3.30;3.10;;;;;;;0.72;75.06;99926.94;4892759;29;20123;-77
2021/01/01 09:07:34;;;;;;;3.42;2.60;;;;;;;0.82;74.99;99928.13;4905624;29;20051;-77
2021/01/01 09:10:14;;;;;;;4.90;3.88;;;;;;;0.87;75.16;99919.38;4911195;29;20032;-77
2021/01/01 09:12:40;;;;;;;2.78;2.67;;;;;;;0.99;74.45;99928.47;4911452;29;20036;-74
2021/01/01 09:15:06;;;;;;;2.80;2.60;;;;;;;1.03;74.88;99918.88;4910328;29;20036;-76
2021/01/01 09:17:34;;;;;;;4.40;3.15;;;;;;;1.22;74.92;99933.28;4911161;29;20055;-79
2021/01/01 09:20:03;;;;;;;3.72;3.42;;;;;;;1.28;75.22;99926.19;4883781;29;20028;-78
2021/01/01 09:22:35;;;;;;;4.07;3.67;;;;;;;1.33;74.63;99930.94;4911490;29;20087;-76
2021/01/01 09:25:24;;;;;;;3.20;2.95;;;;;;;1.41;74.30;99941.47;4913114;29;20056;-79
2021/01/01 09:28:19;;;;;;;1.85;1.75;;;;;;;1.61;74.13;99948.56;4899765;29;20020;-76
2021/01/01 09:30:51;;;;;;;8.50;5.00;;;;;;;1.51;74.57;99935.59;4919329;29;20035;-76
2021/01/01 09:33:17;;;;;;;4.05;3.75;;;;;;;1.57;74.03;99951.69;4915162;29;20028;-75
2021/01/01 09:35:42;;;;;;;3.63;3.38;;;;;;;1.66;74.66;99948.75;4913451;29;20127;-74
2021/01/01 09:38:08;;;;;;;7.07;5.38;;;;;;;1.67;75.22;99947.72;4915178;29;20037;-75
2021/01/01 09:40:34;;;;;;;5.47;3.95;;;;;;;1.71;74.45;99946.22;4913710;29;20072;-75
2021/01/01 09:43:08;;;;;;;7.65;3.58;;;;;;;1.80;74.59;99955.69;4895860;29;20036;-75
2021/01/01 09:45:35;;;;;;;7.95;3.85;;;;;;;1.82;75.16;99936.59;4911912;29;20032;-75
2021/01/01 09:48:04;;;;;;;13.73;5.50;;;;;;;1.96;75.74;99953.47;4902987;29;20119;-75
2021/01/01 09:50:40;;;;;;;4.88;2.92;;;;;;;2.02;75.13;99952.63;4899791;29;20039;-76
2021/01/01 09:53:05;;;;;;;3.88;3.60;;;;;;;2.10;75.31;99944.22;4879034;29;20035;-76
2021/01/01 09:55:33;;;;;;;2.97;2.33;;;;;;;2.37;75.42;99957.47;4910215;29;20016;-76
2021/01/01 09:57:58;;;;;;;2.80;2.53;;;;;;;2.56;75.18;99959.13;4905385;29;20038;-76
2021/01/01 10:00:31;;;;;;;4.93;3.20;;;;;;;2.66;74.83;99947.81;4880748;29;20032;-76
2021/01/01 10:02:57;;;;;;;4.70;2.25;;;;;;;2.88;74.52;99961.66;4882579;29;20040;-77
2021/01/01 10:05:24;;;;;;;3.88;1.70;;;;;;;3.05;74.67;99952.94;4906736;29;20114;-76
2021/01/01 10:07:50;;;;;;;2.08;1.98;;;;;;;3.17;73.89;99947.56;4906181;29;20055;-76
2021/01/01 10:10:15;;;;;;;1.63;1.52;;;;;;;3.36;74.15;99960.00;4906389;29;20032;-75
2021/01/01 10:12:41;;;;;;;3.45;3.10;;;;;;;3.46;73.56;99956.72;4890332;29;20699;-76
2021/01/01 10:15:07;;;;;;;11.05;6.03;;;;;;;3.60;72.96;99958.19;4822671;29;20036;-76
2021/01/01 10:17:33;;;;;;;7.75;6.70;;;;;;;3.43;72.74;99940.97;4856617;29;20181;-75
2021/01/01 10:20:00;;;;;;;6.35;3.92;;;;;;;3.38;72.21;99938.97;4853216;29;20029;-74
2021/01/01 10:22:28;;;;;;;10.52;5.72;;;;;;;3.36;72.92;99943.78;4850393;29;20119;-76
2021/01/01 10:25:06;;;;;;;;;;;;;;;;;;;;;
2021/01/01 10:27:39;;;;;;;5.25;4.22;;;;;;;3.43;72.85;99949.06;4863524;29;20044;-76
2021/01/01 10:30:10;;;;;;;8.63;5.75;;;;;;;3.47;72.55;99961.09;4850421;29;20029;-76
2021/01/01 10:32:35;;;;;;;8.18;5.85;;;;;;;3.48;72.94;99971.66;4858845;29;20101;-75
2021/01/01 10:35:01;;;;;;;6.82;3.92;;;;;;;3.40;72.22;99963.06;4852535;29;20116;-77
2021/01/01 10:37:26;;;;;;;9.18;4.50;;;;;;;3.40;71.95;99971.16;4860442;29;20116;-75
2021/01/01 10:39:52;;;;;;;9.98;5.90;;;;;;;3.26;72.17;99962.44;4839292;29;20041;-76
2021/01/01 10:42:19;;;;;;;12.98;5.88;;;;;;;3.30;72.38;99975.25;4854047;29;20099;-77
2021/01/01 10:44:45;;;;;;;10.93;5.15;;;;;;;3.28;73.28;99963.84;4851558;29;20424;-77
2021/01/01 10:47:12;;;;;;;4.45;4.05;;;;;;;3.30;72.55;99969.84;4860039;29;20033;-75
2021/01/01 10:49:38;;;;;;;4.30;3.88;;;;;;;3.34;72.56;99974.78;4856297;29;20037;-76
2021/01/01 10:52:06;;;;;;;3.55;3.33;;;;;;;3.36;73.71;99988.88;4858552;29;20469;-77
2021/01/01 10:54:40;;;;;;;4.75;3.45;;;;;;;3.28;72.55;99974.63;4837372;29;20120;-77
2021/01/01 10:57:34;;;;;;;10.82;5.60;;;;;;;3.25;72.52;99967.00;4864100;29;20030;-79
2021/01/01 11:00:06;;;;;;;11.80;5.03;;;;;;;3.24;72.90;99981.59;4833671;29;20040;-75
2021/01/01 11:02:34;;;;;;;4.00;3.67;;;;;;;3.22;73.07;99972.84;4861925;29;20029;-76
2021/01/01 11:05:00;;;;;;;4.75;2.88;;;;;;;3.29;73.46;99989.81;4876428;29;20137;-76
2021/01/01 11:07:25;;;;;;;5.38;4.22;;;;;;;3.22;73.07;99967.47;4856514;29;20102;-77
2021/01/01 12:24:48;;;;;;;13.65;9.82;;;;;;;3.45;73.01;99947.00;4798143;29;20602;-76
2021/01/01 12:27:16;;;;;;;10.88;7.28;;;;;;;3.42;72.95;99950.16;4787621;29;20441;-77
2021/01/01 12:29:43;;;;;;;10.20;8.40;;;;;;;3.47;73.63;99966.50;4798126;29;20046;-78
2021/01/01 12:32:18;;;;;;;13.60;8.15;;;;;;;3.45;73.25;99947.00;4844977;29;20041;-77
2021/01/01 12:34:44;;;;;;;;;;;;;;;3.52;72.93;99958.53;4855461;29;20040;-78
2021/01/01 12:37:10;;;;;;;13.25;8.60;;;;;;;3.47;73.03;99955.69;4861291;29;20371;-77
2021/01/01 12:39:35;;;;;;;12.52;9.30;;;;;;;3.42;73.65;99947.44;4873182;29;20126;-76
2021/01/01 12:42:04;;;;;;;11.60;9.13;;;;;;;3.49;73.83;99950.88;4873019;29;20063;-77
2021/01/01 12:44:35;;;;;;;13.70;8.68;;;;;;;3.45;74.18;99944.28;4865099;29;20029;-77
2021/01/01 12:47:10;;;;;;;10.07;6.57;;;;;;;3.40;74.42;99930.63;4869435;29;20029;-76
2021/01/01 12:49:36;;;;;;;;;;;;;;;3.58;73.47;99949.47;4868688;29;20071;-77
2021/01/01 12:52:09;;;;;;;15.15;8.23;;;;;;;3.62;73.74;99956.09;4877887;29;19916;-76
2021/01/01 12:54:37;;;;;;;10.93;8.35;;;;;;;3.54;74.20;99931.25;4873174;29;20476;-77
2021/01/01 12:57:03;;;;;;;12.40;8.88;;;;;;;3.57;74.43;99931.59;4858428;29;20037;-76
2021/01/01 12:59:31;;;;;;;19.08;9.93;;;;;;;3.63;73.67;99941.47;4858773;29;20040;-76
2021/01/01 13:01:56;;;;;;;14.80;8.25;;;;;;;3.64;73.59;99942.34;4857327;29;20401;-76
2021/01/01 13:04:25;;;;;;;9.88;8.75;;;;;;;3.66;74.25;99951.88;4866745;29;20036;-76
2021/01/01 13:06:55;;;;;;;16.73;8.45;;;;;;;3.71;73.93;99937.66;4858690;29;20501;-77
2021/01/01 13:09:24;;;;;;;28.73;10.95;;;;;;;3.85;74.74;99943.66;4859878;29;20108;-75
2021/01/01 13:11:52;;;;;;;20.20;11.40;;;;;;;3.92;73.93;99943.56;4845865;29;20068;-74